PILOTS ONLINE: 972    ATC ONLINE: 218

CYSY

Sachs Harbour (David Nasogaluak Jr. Saaryuaq) Airport

Location

IATA YSY
City Sachs Harbour
Country  Canada
Latitude 71° 59' 38" N
Longitude 125° 14' 34" W
Elevation 282 ft
Type Medium Airport

Map

Weather

METAR
2014/10/25 16:00
CYSY 251600Z 10012KT 10SM -SN BKN030 M10/M12 A2988 RMK SC7 SLP128
TAF
2014/10/25 15:00
TAF CYSY 251438Z 2515/2523 09015KT P6SM BKN030 
      TEMPO 2515/2523 5SM -SN BKN020 
      RMK NXT FCST BY 251900Z

Runways

08T/26T 4000 ft / 100 ft

Outbound flights

Callsign Flying to Pilot ATD/STD ETA Aircraft

Inbound flights

Callsign Flying from Pilot ATD ETA Aircraft